createdAt,value
2019-02-08T00:00:14.835Z,78.64
2019-02-08T00:01:15.158Z,78.93
2019-02-08T00:02:14.872Z,78.55
2019-02-08T00:03:14.879Z,78.55
2019-02-08T00:04:14.638Z,78.45
2019-02-08T00:05:14.646Z,78.93
2019-02-08T00:06:14.930Z,78.64
2019-02-08T00:07:14.691Z,78.64
2019-02-08T00:08:15.153Z,78.55
2019-02-08T00:09:14.716Z,78.83
2019-02-08T00:10:14.994Z,78.74
2019-02-08T00:11:15.017Z,78.74
2019-02-08T00:12:14.770Z,78.74
2019-02-08T00:13:14.787Z,78.93
2019-02-08T00:14:14.802Z,78.74
2019-02-08T00:15:15.079Z,78.64
2019-02-08T00:16:15.377Z,79.03
2019-02-08T00:17:15.161Z,78.74
2019-02-08T00:18:15.135Z,78.78
2019-02-08T00:19:14.895Z,78.59
2019-02-08T00:20:14.912Z,79.03
2019-02-08T00:21:15.195Z,79.03
2019-02-08T00:22:14.952Z,78.74
2019-02-08T00:23:25.953Z,78.3
2019-02-08T00:24:14.977Z,78.4
2019-02-08T00:25:15.262Z,78.5
2019-02-08T00:26:15.281Z,78.5
2019-02-08T00:27:15.286Z,78.5
2019-02-08T00:28:15.049Z,78.69
2019-02-08T00:29:15.328Z,78.4
2019-02-08T00:30:15.086Z,78.4
2019-02-08T00:31:15.521Z,78.11
2019-02-08T00:32:15.142Z,78.59
2019-02-08T00:33:15.389Z,78.5
2019-02-08T00:34:15.409Z,78.4
2019-02-08T00:35:15.430Z,78.3
2019-02-08T00:36:15.445Z,78.21
2019-02-08T00:37:15.201Z,78.4
2019-02-08T00:38:15.421Z,78.5
2019-02-08T00:39:15.247Z,78.59
2019-02-08T00:40:15.252Z,78.02
2019-02-08T00:41:15.269Z,78.21
2019-02-08T00:42:15.290Z,78.3
2019-02-08T00:43:15.573Z,77.92
2019-02-08T00:44:15.584Z,77.92
2019-02-08T00:45:15.601Z,78.4
2019-02-08T00:46:15.735Z,78.4
2019-02-08T00:47:15.374Z,78.59
2019-02-08T00:48:15.394Z,78.4
2019-02-08T00:49:15.410Z,78.5
2019-02-08T00:50:15.428Z,78.5
2019-02-08T00:51:15.708Z,78.45
2019-02-08T00:52:15.722Z,78.27
2019-02-08T00:53:15.953Z,78.4
2019-02-08T00:54:15.530Z,78.5
2019-02-08T00:55:15.788Z,78.21
2019-02-08T00:56:15.791Z,78.36
2019-02-08T00:57:15.809Z,78.45
2019-02-08T00:58:15.569Z,78.36
2019-02-08T00:59:15.590Z,78.55
2019-02-08T01:00:15.612Z,78.27
2019-02-08T01:01:16.284Z,78.36
2019-02-08T01:02:15.896Z,78.55
2019-02-08T01:03:15.657Z,78.45
2019-02-08T01:04:15.678Z,78.27
2019-02-08T01:05:15.690Z,78.36
2019-02-08T01:06:15.965Z,78.5
2019-02-08T01:07:15.984Z,78.93
2019-02-08T01:08:16.315Z,78.93
2019-02-08T01:09:16.022Z,79.03
2019-02-08T01:10:15.777Z,78.93
2019-02-08T01:11:15.797Z,78.83
2019-02-08T01:12:16.070Z,78.64
2019-02-08T01:13:15.830Z,78.55
2019-02-08T01:14:16.112Z,78.64
2019-02-08T01:15:15.867Z,78.74
2019-02-08T01:16:15.880Z,78.74
2019-02-08T01:17:15.897Z,78.83
2019-02-08T01:18:16.177Z,78.83
2019-02-08T01:19:16.202Z,78.93
2019-02-08T01:20:16.210Z,78.74
2019-02-08T01:21:15.970Z,78.93
2019-02-08T01:22:15.988Z,79.12
2019-02-08T01:23:16.199Z,78.74
2019-02-08T01:24:16.018Z,78.83
2019-02-08T01:25:16.193Z,78.83
2019-02-08T01:26:16.060Z,78.74
2019-02-08T01:27:16.328Z,78.64
2019-02-08T01:28:16.344Z,78.74
2019-02-08T01:29:16.364Z,78.74
2019-02-08T01:30:16.382Z,78.64
2019-02-08T01:31:16.398Z,78.64
2019-02-08T01:32:16.160Z,78.74
2019-02-08T01:33:16.433Z,78.74
2019-02-08T01:34:16.189Z,78.74
2019-02-08T01:35:16.206Z,78.83
2019-02-08T01:36:16.225Z,78.83
2019-02-08T01:37:16.505Z,78.93
2019-02-08T01:38:16.518Z,78.83
2019-02-08T01:39:16.277Z,78.83
2019-02-08T01:40:16.297Z,78.83
2019-02-08T01:41:16.329Z,78.64
2019-02-08T01:42:16.328Z,78.83
2019-02-08T01:43:16.346Z,78.83
2019-02-08T01:44:16.368Z,78.83
2019-02-08T01:45:16.644Z,79.03
2019-02-08T01:46:16.656Z,78.97
2019-02-08T01:47:16.675Z,78.74
2019-02-08T01:48:16.692Z,79.06
2019-02-08T01:49:16.709Z,78.36
2019-02-08T01:50:16.470Z,78.36
2019-02-08T01:51:16.488Z,78.27
2019-02-08T01:52:16.504Z,78.3
2019-02-08T01:53:16.777Z,78.5
2019-02-08T01:54:16.795Z,78.55
2019-02-08T01:55:16.812Z,78.5
2019-02-08T01:56:16.574Z,78.21
2019-02-08T01:57:16.591Z,78.69
2019-02-08T01:58:16.609Z,78.5
2019-02-08T01:59:16.625Z,78.5
2019-02-08T02:00:16.643Z,78.4
2019-02-08T02:01:16.661Z,78.69
2019-02-08T02:02:16.935Z,78.5
2019-02-08T02:03:16.956Z,78.5
2019-02-08T02:04:16.714Z,78.3
2019-02-08T02:05:16.731Z,78.4
2019-02-08T02:06:17.008Z,78.5
2019-02-08T02:07:16.765Z,78.5
2019-02-08T02:08:17.038Z,78.5
2019-02-08T02:09:17.059Z,78.4
2019-02-08T02:10:17.074Z,78.21
2019-02-08T02:11:16.837Z,78.4
2019-02-08T02:12:16.852Z,78.21
2019-02-08T02:13:16.872Z,78.5
2019-02-08T02:14:16.886Z,78.4
2019-02-08T02:15:17.181Z,78.5
2019-02-08T02:16:17.179Z,78.5
2019-02-08T02:17:17.199Z,78.5
2019-02-08T02:18:16.957Z,78.59
2019-02-08T02:19:16.974Z,78.5
2019-02-08T02:20:16.995Z,78.5
2019-02-08T02:21:17.267Z,78.5
2019-02-08T02:22:17.284Z,78.4
2019-02-08T02:23:17.312Z,78.5
2019-02-08T02:24:17.319Z,77.83
2019-02-08T02:25:17.087Z,78.02
2019-02-08T02:26:17.354Z,78.5
2019-02-08T02:27:17.372Z,78.69
2019-02-08T02:28:17.395Z,77.83
2019-02-08T02:29:17.152Z,78.3
2019-02-08T02:30:17.172Z,77.83
2019-02-08T02:31:17.442Z,78.3
2019-02-08T02:32:17.464Z,78.5
2019-02-08T02:33:17.478Z,78.59
2019-02-08T02:34:17.495Z,78.5
2019-02-08T02:35:17.258Z,78.3
2019-02-08T02:36:17.287Z,78.5
2019-02-08T02:37:17.294Z,78.5
2019-02-08T02:38:17.568Z,78.5
2019-02-08T02:39:17.327Z,78.59
2019-02-08T02:40:17.340Z,78.59
2019-02-08T02:41:17.366Z,78.02
2019-02-08T02:42:17.375Z,78.59
2019-02-08T02:43:17.394Z,78.59
2019-02-08T02:44:17.670Z,78.4
2019-02-08T02:45:17.438Z,78.02
2019-02-08T02:46:17.444Z,78.3
2019-02-08T02:47:17.726Z,78.4
2019-02-08T02:48:17.785Z,78.4
2019-02-08T02:49:17.501Z,78.5
2019-02-08T02:50:17.520Z,78.11
2019-02-08T02:51:17.535Z,78.59
2019-02-08T02:52:17.807Z,78.4
2019-02-08T02:53:17.825Z,78.5
2019-02-08T02:54:17.594Z,78.5
2019-02-08T02:55:17.612Z,78.3
2019-02-08T02:56:17.621Z,78.3
2019-02-08T02:57:17.904Z,78.4
2019-02-08T02:58:17.932Z,78.5
2019-02-08T02:59:17.669Z,78.59
2019-02-08T03:00:17.691Z,78.5
2019-02-08T03:01:17.709Z,78.3
2019-02-08T03:02:17.980Z,78.36
2019-02-08T03:03:18.012Z,78.69
2019-02-08T03:04:17.760Z,78.45
2019-02-08T03:05:17.781Z,78.27
2019-02-08T03:06:17.793Z,78.36
2019-02-08T03:07:18.071Z,79.16
2019-02-08T03:08:18.087Z,78.74
2019-02-08T03:09:17.845Z,78.83
2019-02-08T03:10:17.863Z,79.03
2019-02-08T03:11:17.882Z,79.12
2019-02-08T03:12:18.170Z,78.93
2019-02-08T03:13:18.179Z,78.93
2019-02-08T03:14:18.190Z,78.83
2019-02-08T03:15:18.209Z,78.74
2019-02-08T03:16:17.968Z,78.88
2019-02-08T03:17:17.989Z,78.78
2019-02-08T03:18:18.007Z,78.83
2019-02-08T03:19:18.282Z,79.06
2019-02-08T03:20:18.050Z,78.74
2019-02-08T03:21:18.313Z,78.74
2019-02-08T03:22:18.331Z,78.83
2019-02-08T03:23:18.089Z,78.74
2019-02-08T03:24:18.116Z,78.93
2019-02-08T03:25:18.125Z,78.93
2019-02-08T03:26:18.144Z,78.64
2019-02-08T03:27:18.158Z,78.64
2019-02-08T03:28:18.179Z,78.55
2019-02-08T03:29:18.451Z,79.12
2019-02-08T03:30:18.217Z,79.03
2019-02-08T03:31:18.491Z,79.03
2019-02-08T03:32:18.513Z,78.83
2019-02-08T03:33:18.552Z,78.93
2019-02-08T03:34:18.546Z,78.83
2019-02-08T03:35:18.557Z,78.93
2019-02-08T03:36:18.583Z,78.74
2019-02-08T03:37:18.590Z,78.83
2019-02-08T03:38:18.605Z,78.74
2019-02-08T03:39:18.369Z,79.03
2019-02-08T03:40:18.646Z,79.03
2019-02-08T03:41:18.407Z,78.83
2019-02-08T03:42:18.417Z,79.03
2019-02-08T03:43:18.447Z,79.22
2019-02-08T03:44:18.453Z,78.83
2019-02-08T03:45:18.476Z,79.6
2019-02-08T03:46:18.488Z,78.93
2019-02-08T03:47:18.513Z,78.93
2019-02-08T03:48:18.821Z,79.12
2019-02-08T03:49:18.798Z,79.31
2019-02-08T03:50:18.820Z,79.5
2019-02-08T03:51:18.578Z,78.83
2019-02-08T03:52:18.864Z,79.31
2019-02-08T03:53:18.928Z,79.31
2019-02-08T03:54:23.719Z,79.12
2019-02-08T03:55:18.645Z,78.93
2019-02-08T03:56:18.660Z,79.6
2019-02-08T03:57:18.936Z,78.74
2019-02-08T03:58:18.956Z,78.83
2019-02-08T03:59:18.971Z,79.22
2019-02-08T04:00:18.730Z,79.5
2019-02-08T04:01:19.010Z,78.93
2019-02-08T04:02:18.770Z,78.74
2019-02-08T04:03:18.785Z,78.93
2019-02-08T04:04:18.799Z,78.64
2019-02-08T04:05:18.817Z,79.03
2019-02-08T04:06:18.836Z,78.83
2019-02-08T04:07:18.855Z,78.83
2019-02-08T04:08:19.127Z,78.83
2019-02-08T04:09:18.886Z,78.74
2019-02-08T04:10:18.907Z,78.93
2019-02-08T04:11:18.921Z,78.93
2019-02-08T04:12:18.939Z,79.22
2019-02-08T04:13:19.213Z,79.03
2019-02-08T04:14:19.231Z,79.03
2019-02-08T04:15:19.249Z,79.31
2019-02-08T04:16:19.007Z,78.93
2019-02-08T04:17:19.282Z,79.03
2019-02-08T04:18:19.302Z,79.5
2019-02-08T04:19:19.324Z,79.31
2019-02-08T04:20:19.336Z,78.93
2019-02-08T04:21:19.092Z,79.22
2019-02-08T04:22:19.108Z,79.5
2019-02-08T04:23:19.126Z,78.93
2019-02-08T04:24:19.146Z,79.31
2019-02-08T04:25:19.163Z,79.31
2019-02-08T04:26:19.181Z,79.41
2019-02-08T04:27:19.204Z,79.41
2019-02-08T04:28:19.280Z,79.41
2019-02-08T04:29:19.497Z,79.22
2019-02-08T04:30:19.505Z,79.31
2019-02-08T04:31:19.535Z,79.31
2019-02-08T04:32:19.542Z,79.22
2019-02-08T04:33:19.567Z,79.31
2019-02-08T04:34:19.320Z,79.12
2019-02-08T04:35:19.334Z,79.22
2019-02-08T04:36:19.349Z,78.93
2019-02-08T04:37:19.367Z,79.12
2019-02-08T04:38:21.015Z,79.41
2019-02-08T04:39:19.400Z,79.22
2019-02-08T04:40:19.676Z,79.41
2019-02-08T04:41:19.699Z,79.31
2019-02-08T04:42:19.457Z,79.97
2019-02-08T04:43:19.497Z,78.93
2019-02-08T04:44:19.492Z,78.93
2019-02-08T04:45:19.506Z,79.97
2019-02-08T04:46:19.524Z,79.69
2019-02-08T04:47:19.798Z,79.41
2019-02-08T04:48:19.557Z,79.5
2019-02-08T04:49:19.574Z,79.6
2019-02-08T04:50:19.593Z,79.79
2019-02-08T04:51:19.613Z,79.41
2019-02-08T04:52:19.898Z,79.41
2019-02-08T04:53:19.644Z,79.6
2019-02-08T04:54:19.656Z,79.69
2019-02-08T04:55:19.936Z,79.69
2019-02-08T04:56:19.949Z,79.79
2019-02-08T04:57:19.968Z,79.6
2019-02-08T04:58:19.728Z,79.79
2019-02-08T04:59:19.756Z,79.69
2019-02-08T05:00:19.759Z,79.6
2019-02-08T05:01:20.042Z,79.69
2019-02-08T05:02:19.794Z,79.6
2019-02-08T05:03:19.812Z,79.79
2019-02-08T05:04:19.830Z,79.6
2019-02-08T05:05:19.848Z,79.6
2019-02-08T05:06:20.127Z,79.69
2019-02-08T05:07:19.882Z,79.6
2019-02-08T05:08:19.897Z,79.6
2019-02-08T05:09:19.914Z,79.6
2019-02-08T05:10:19.937Z,79.6
2019-02-08T05:11:20.250Z,79.69
2019-02-08T05:12:20.229Z,79.6
2019-02-08T05:13:19.984Z,79.79
2019-02-08T05:14:20.004Z,79.6
2019-02-08T05:15:20.018Z,79.69
2019-02-08T05:16:20.035Z,79.69
2019-02-08T05:17:20.309Z,79.88
2019-02-08T05:18:20.072Z,79.6
2019-02-08T05:19:20.093Z,79.41
2019-02-08T05:20:20.103Z,79.41
2019-02-08T05:21:20.119Z,79.5
2019-02-08T05:22:20.162Z,79.41
2019-02-08T05:23:20.158Z,79.69
2019-02-08T05:24:20.432Z,79.6
2019-02-08T05:25:20.459Z,79.79
2019-02-08T05:26:20.206Z,79.31
2019-02-08T05:27:20.228Z,79.6
2019-02-08T05:28:20.496Z,79.79
2019-02-08T05:29:20.513Z,79.79
2019-02-08T05:30:20.537Z,79.79
2019-02-08T05:31:20.295Z,79.5
2019-02-08T05:32:20.304Z,79.79
2019-02-08T05:33:20.329Z,79.6
2019-02-08T05:34:20.345Z,79.5
2019-02-08T05:35:20.616Z,79.41
2019-02-08T05:36:20.637Z,79.79
2019-02-08T05:37:20.400Z,79.5
2019-02-08T05:38:20.411Z,79.5
2019-02-08T05:39:20.428Z,79.6
2019-02-08T05:40:20.447Z,79.31
2019-02-08T05:41:20.466Z,79.5
2019-02-08T05:42:20.481Z,79.41
2019-02-08T05:43:20.820Z,79.5
2019-02-08T05:44:20.783Z,79.79
2019-02-08T05:45:20.530Z,79.5
2019-02-08T05:46:20.546Z,79.41
2019-02-08T05:47:20.564Z,79.41
2019-02-08T05:48:20.583Z,79.41
2019-02-08T05:49:20.605Z,79.41
2019-02-08T05:50:20.876Z,79.88
2019-02-08T05:51:20.894Z,79.69
2019-02-08T05:52:20.914Z,79.79
2019-02-08T05:53:20.668Z,79.79
2019-02-08T05:54:20.689Z,79.79
2019-02-08T05:55:20.703Z,79.6
2019-02-08T05:56:20.725Z,79.6
2019-02-08T05:57:20.739Z,79.79
2019-02-08T05:58:21.018Z,79.69
2019-02-08T05:59:21.043Z,79.6
2019-02-08T06:00:21.047Z,79.6
2019-02-08T06:01:20.803Z,79.6
2019-02-08T06:02:21.086Z,79.69
2019-02-08T06:03:20.849Z,79.6
2019-02-08T06:04:21.115Z,79.6
2019-02-08T06:05:20.876Z,79.6
2019-02-08T06:06:21.169Z,79.79
2019-02-08T06:07:21.167Z,79.6
2019-02-08T06:08:20.925Z,79.69
2019-02-08T06:09:20.948Z,79.69
2019-02-08T06:10:20.959Z,79.6
2019-02-08T06:11:20.981Z,79.41
2019-02-08T06:12:21.254Z,79.41
2019-02-08T06:13:21.010Z,79.5
2019-02-08T06:14:21.286Z,79.41
2019-02-08T06:15:21.046Z,79.5
2019-02-08T06:16:21.064Z,79.5
2019-02-08T06:17:21.086Z,79.6
2019-02-08T06:18:21.097Z,79.41
2019-02-08T06:19:21.375Z,79.12
2019-02-08T06:20:21.390Z,79.41
2019-02-08T06:21:21.151Z,79.12
2019-02-08T06:22:21.528Z,79.22
2019-02-08T06:23:21.442Z,79.6
2019-02-08T06:24:21.458Z,79.22
2019-02-08T06:25:21.269Z,79.41
2019-02-08T06:26:21.237Z,79.12
2019-02-08T06:27:21.250Z,79.6
2019-02-08T06:28:21.267Z,79.41
2019-02-08T06:29:21.284Z,79.6
2019-02-08T06:30:21.569Z,79.41
2019-02-08T06:31:21.576Z,79.6
2019-02-08T06:32:21.337Z,79.41
2019-02-08T06:33:21.353Z,79.31
2019-02-08T06:34:21.376Z,79.6
2019-02-08T06:35:21.388Z,79.6
2019-02-08T06:36:21.406Z,79.5
2019-02-08T06:37:21.692Z,79.41
2019-02-08T06:38:21.700Z,79.41
2019-02-08T06:39:21.719Z,79.5
2019-02-08T06:40:21.475Z,79.41
2019-02-08T06:41:21.751Z,79.79
2019-02-08T06:42:21.766Z,79.69
2019-02-08T06:43:21.784Z,79.6
2019-02-08T06:44:21.801Z,79.69
2019-02-08T06:45:21.562Z,79.69
2019-02-08T06:46:21.588Z,79.6
2019-02-08T06:47:21.593Z,79.6
2019-02-08T06:48:21.611Z,79.6
2019-02-08T06:49:21.629Z,79.69
2019-02-08T06:50:21.645Z,79.69
2019-02-08T06:51:21.668Z,79.6
2019-02-08T06:52:21.680Z,79.6
2019-02-08T06:53:21.953Z,79.5
2019-02-08T06:54:21.716Z,79.5
2019-02-08T06:55:21.737Z,79.79
2019-02-08T06:56:21.755Z,79.12
2019-02-08T06:57:21.767Z,79.6
2019-02-08T06:58:21.782Z,79.79
2019-02-08T06:59:21.803Z,79.03
2019-02-08T07:00:22.075Z,78.93
2019-02-08T07:01:21.835Z,78.74
2019-02-08T07:02:22.112Z,78.93
2019-02-08T07:03:22.128Z,80.16
2019-02-08T07:04:23.934Z,79.97
2019-02-08T07:05:22.163Z,79.88
2019-02-08T07:06:22.179Z,79.22
2019-02-08T07:07:22.194Z,79.41
2019-02-08T07:08:22.216Z,79.41
2019-02-08T07:09:21.972Z,79.22
2019-02-08T07:10:22.248Z,79.22
2019-02-08T07:11:22.009Z,79.22
2019-02-08T07:12:22.023Z,79.31
2019-02-08T07:13:22.042Z,79.41
2019-02-08T07:14:22.059Z,79.31
2019-02-08T07:15:22.077Z,79.31
2019-02-08T07:16:22.092Z,79.35
2019-02-08T07:17:22.367Z,78.93
2019-02-08T07:18:22.384Z,78.93
2019-02-08T07:19:22.402Z,79.03
2019-02-08T07:20:22.416Z,79.03
2019-02-08T07:21:22.175Z,79.03
2019-02-08T07:22:22.194Z,78.59
2019-02-08T07:23:22.211Z,78.78
2019-02-08T07:24:22.488Z,78.78
2019-02-08T07:25:22.249Z,78.78
2019-02-08T07:26:22.263Z,78.69
2019-02-08T07:27:22.542Z,78.69
2019-02-08T07:28:22.558Z,78.97
2019-02-08T07:29:22.314Z,78.88
2019-02-08T07:30:22.329Z,79.06
2019-02-08T07:31:22.349Z,79.06
2019-02-08T07:32:22.369Z,78.88
2019-02-08T07:33:22.675Z,78.4
2019-02-08T07:34:22.439Z,78.59
2019-02-08T07:35:22.418Z,78.3
2019-02-08T07:36:22.694Z,78.3
2019-02-08T07:37:22.710Z,78.5
2019-02-08T07:38:22.728Z,78.4
2019-02-08T07:39:22.487Z,78.59
2019-02-08T07:40:22.504Z,78.4
2019-02-08T07:41:22.523Z,77.92
2019-02-08T07:42:22.537Z,78.5
2019-02-08T07:43:22.815Z,78.3
2019-02-08T07:44:22.830Z,78.4
2019-02-08T07:45:22.846Z,78.4
2019-02-08T07:46:22.865Z,78.5
2019-02-08T07:47:22.625Z,78.3
2019-02-08T07:48:22.641Z,78.02
2019-02-08T07:49:22.658Z,77.73
2019-02-08T07:50:22.674Z,77.83
2019-02-08T07:51:22.954Z,77.83
2019-02-08T07:52:22.968Z,77.83
2019-02-08T07:53:22.991Z,78.02
2019-02-08T07:54:22.743Z,78.11
2019-02-08T07:55:28.224Z,78.11
2019-02-08T07:56:22.778Z,78.11
2019-02-08T07:57:22.802Z,78.11
2019-02-08T07:58:22.813Z,78.02
2019-02-08T07:59:23.088Z,77.73
2019-02-08T08:00:23.111Z,77.92
2019-02-08T08:01:23.130Z,78.11
2019-02-08T08:02:23.141Z,77.73
2019-02-08T08:03:23.155Z,77.64
2019-02-08T08:04:23.174Z,77.73
2019-02-08T08:05:22.934Z,77.73
2019-02-08T08:06:23.208Z,77.83
2019-02-08T08:07:23.236Z,77.83
2019-02-08T08:08:23.243Z,77.92
2019-02-08T08:09:23.268Z,78.02
2019-02-08T08:10:23.282Z,77.83
2019-02-08T08:11:23.038Z,77.55
2019-02-08T08:12:23.054Z,78.21
2019-02-08T08:13:23.070Z,78.11
2019-02-08T08:14:23.089Z,78.21
2019-02-08T08:15:23.105Z,77.73
2019-02-08T08:16:23.125Z,77.64
2019-02-08T08:17:23.402Z,77.45
2019-02-08T08:18:23.417Z,77.36
2019-02-08T08:19:23.448Z,77.73
2019-02-08T08:20:23.193Z,77.73
2019-02-08T08:21:23.215Z,77.64
2019-02-08T08:22:23.236Z,77.73
2019-02-08T08:23:23.245Z,77.77
2019-02-08T08:24:23.523Z,77.68
2019-02-08T08:25:23.542Z,77.77
2019-02-08T08:26:23.300Z,77.68
2019-02-08T08:27:23.315Z,77.3
2019-02-08T08:28:23.333Z,77.49
2019-02-08T08:29:23.609Z,77.39
2019-02-08T08:30:23.632Z,77.3
2019-02-08T08:31:23.386Z,77.11
2019-02-08T08:32:23.401Z,77.39
2019-02-08T08:33:23.433Z,77.49
2019-02-08T08:34:23.702Z,77.2
2019-02-08T08:35:23.456Z,77.2
2019-02-08T08:36:23.471Z,76.82
2019-02-08T08:37:24.751Z,76.73
2019-02-08T08:38:23.507Z,76.82
2019-02-08T08:39:23.575Z,76.92
2019-02-08T08:40:23.800Z,76.82
2019-02-08T08:41:23.561Z,76.73
2019-02-08T08:42:23.577Z,76.82
2019-02-08T08:43:23.852Z,76.82
2019-02-08T08:44:23.872Z,76.92
2019-02-08T08:45:23.629Z,76.92
2019-02-08T08:46:23.653Z,77.01
2019-02-08T08:47:23.930Z,77.01
2019-02-08T08:48:23.685Z,77.2
2019-02-08T08:49:23.740Z,77.3
2019-02-08T08:50:23.978Z,76.73
2019-02-08T08:51:23.994Z,77.01
2019-02-08T08:52:23.754Z,76.63
2019-02-08T08:53:23.770Z,76.63
2019-02-08T08:54:23.788Z,76.73
2019-02-08T08:55:24.062Z,76.73
2019-02-08T08:56:23.825Z,76.73
2019-02-08T08:57:23.842Z,76.16
2019-02-08T08:58:23.858Z,76.16
2019-02-08T08:59:24.149Z,76.63
2019-02-08T09:00:23.893Z,76.54
2019-02-08T09:01:23.910Z,76.54
2019-02-08T09:02:23.930Z,76.54
2019-02-08T09:03:23.946Z,76.35
2019-02-08T09:04:23.963Z,76.35
2019-02-08T09:05:23.983Z,76.73
2019-02-08T09:06:24.261Z,76.92
2019-02-08T09:07:24.279Z,76.63
2019-02-08T09:08:24.033Z,76.54
2019-02-08T09:09:24.050Z,76.35
2019-02-08T09:10:24.069Z,76.54
2019-02-08T09:11:24.086Z,76.16
2019-02-08T09:12:24.107Z,76.44
2019-02-08T09:13:24.137Z,76.16
2019-02-08T09:14:24.400Z,76.54
2019-02-08T09:15:25.006Z,76.16
2019-02-08T09:16:24.172Z,76.16
2019-02-08T09:17:24.198Z,76.16
2019-02-08T09:18:24.212Z,76.35
2019-02-08T09:19:24.482Z,76.2
2019-02-08T09:20:24.242Z,75.96
2019-02-08T09:21:24.519Z,76.06
2019-02-08T09:22:24.536Z,76.2
2019-02-08T09:23:24.302Z,75.87
2019-02-08T09:24:24.571Z,76.2
2019-02-08T09:25:24.331Z,76.1
2019-02-08T09:26:24.419Z,75.81
2019-02-08T09:27:24.623Z,76.01
2019-02-08T09:28:24.382Z,75.91
2019-02-08T09:29:24.662Z,75.72
2019-02-08T09:30:24.676Z,76.1
2019-02-08T09:31:24.697Z,76.01
2019-02-08T09:32:24.455Z,76.01
2019-02-08T09:33:24.473Z,76.01
2019-02-08T09:34:24.765Z,76.01
2019-02-08T09:35:24.507Z,75.53
2019-02-08T09:36:24.525Z,75.43
2019-02-08T09:37:24.543Z,75.43
2019-02-08T09:38:24.562Z,75.43
2019-02-08T09:39:24.835Z,75.34
2019-02-08T09:40:24.598Z,75.62
2019-02-08T09:41:24.871Z,75.72
2019-02-08T09:42:24.631Z,75.62
2019-02-08T09:43:24.657Z,75.72
2019-02-08T09:44:24.927Z,75.72
2019-02-08T09:45:24.683Z,75.53
2019-02-08T09:46:24.970Z,75.62
2019-02-08T09:47:24.720Z,75.43
2019-02-08T09:48:24.993Z,75.62
2019-02-08T09:49:24.756Z,75.53
2019-02-08T09:50:24.772Z,75.43
2019-02-08T09:51:24.789Z,75.53
2019-02-08T09:52:24.811Z,75.72
2019-02-08T09:53:24.826Z,75.62
2019-02-08T09:54:24.845Z,75.53
2019-02-08T09:55:25.120Z,75.72
2019-02-08T09:56:24.878Z,75.53
2019-02-08T09:57:25.155Z,75.53
2019-02-08T09:58:24.913Z,75.53
2019-02-08T09:59:25.190Z,75.15
2019-02-08T10:00:24.950Z,75.72
2019-02-08T10:01:25.228Z,75.62
2019-02-08T10:02:25.245Z,75.34
2019-02-08T10:03:25.007Z,75.15
2019-02-08T10:04:25.022Z,75.24
2019-02-08T10:05:25.039Z,75.34
2019-02-08T10:06:25.060Z,75.72
2019-02-08T10:07:25.071Z,75.62
2019-02-08T10:08:25.092Z,75.81
2019-02-08T10:09:25.367Z,75.24
2019-02-08T10:10:25.126Z,75.15
2019-02-08T10:11:25.145Z,75.34
2019-02-08T10:12:25.164Z,75.24
2019-02-08T10:13:25.437Z,75.34
2019-02-08T10:14:25.201Z,75.34
2019-02-08T10:15:25.475Z,75.34
2019-02-08T10:16:25.237Z,75.34
2019-02-08T10:17:25.515Z,75.34
2019-02-08T10:18:25.271Z,75.24
2019-02-08T10:19:25.296Z,75.24
2019-02-08T10:20:25.309Z,75.34
2019-02-08T10:21:25.322Z,75.53
2019-02-08T10:22:25.599Z,75.72
2019-02-08T10:23:25.363Z,75.53
2019-02-08T10:24:25.637Z,74.77
2019-02-08T10:25:25.396Z,74.96
2019-02-08T10:26:25.414Z,74.99
2019-02-08T10:27:25.431Z,74.96
2019-02-08T10:28:25.452Z,74.77
2019-02-08T10:29:25.475Z,74.87
2019-02-08T10:30:25.745Z,74.62
2019-02-08T10:31:25.502Z,74.67
2019-02-08T10:32:25.781Z,74.67
2019-02-08T10:33:25.796Z,74.87
2019-02-08T10:34:25.554Z,74.99
2019-02-08T10:35:25.832Z,74.71
2019-02-08T10:36:25.595Z,74.71
2019-02-08T10:37:25.608Z,74.62
2019-02-08T10:38:25.626Z,74.9
2019-02-08T10:39:25.644Z,74.24
2019-02-08T10:40:25.666Z,74.14
2019-02-08T10:41:32.815Z,74.43
2019-02-08T10:42:25.704Z,74.33
2019-02-08T10:43:25.722Z,74.43
2019-02-08T10:44:25.736Z,73.95
2019-02-08T10:45:26.015Z,74.43
2019-02-08T10:46:25.771Z,74.33
2019-02-08T10:47:25.787Z,74.33
2019-02-08T10:48:26.064Z,74.43
2019-02-08T10:49:25.825Z,74.62
2019-02-08T10:50:25.842Z,74.62
2019-02-08T10:51:25.858Z,74.43
2019-02-08T10:52:27.191Z,73.66
2019-02-08T10:53:26.155Z,74.04
2019-02-08T10:54:25.912Z,73.95
2019-02-08T10:55:25.931Z,74.24
2019-02-08T10:56:25.950Z,74.04
2019-02-08T10:57:26.223Z,73.85
2019-02-08T10:58:25.985Z,73.66
2019-02-08T10:59:26.004Z,73.76
2019-02-08T11:00:26.026Z,73.95
2019-02-08T11:01:26.297Z,74.04
2019-02-08T11:02:26.319Z,74.24
2019-02-08T11:03:26.077Z,73.95
2019-02-08T11:04:26.096Z,73.47
2019-02-08T11:05:26.112Z,73.57
2019-02-08T11:06:26.389Z,73.47
2019-02-08T11:07:30.445Z,73.57
2019-02-08T11:08:26.426Z,74.14
2019-02-08T11:09:26.444Z,73.76
2019-02-08T11:10:26.203Z,73.85
2019-02-08T11:11:26.221Z,73.85
2019-02-08T11:12:26.246Z,74.14
2019-02-08T11:13:26.515Z,74.14
2019-02-08T11:14:26.533Z,73.76
2019-02-08T11:15:26.292Z,73.76
2019-02-08T11:16:26.313Z,73.76
2019-02-08T11:17:26.330Z,73.66
2019-02-08T11:18:26.350Z,73.66
2019-02-08T11:19:26.622Z,73.66
2019-02-08T11:20:26.642Z,73.76
2019-02-08T11:21:26.660Z,73.76
2019-02-08T11:22:26.421Z,74.14
2019-02-08T11:23:26.441Z,73.76
2019-02-08T11:24:26.735Z,74.04
2019-02-08T11:25:26.474Z,73.76
2019-02-08T11:26:27.067Z,73.66
2019-02-08T11:27:26.509Z,73.76
2019-02-08T11:28:26.528Z,73.95
2019-02-08T11:29:26.803Z,74.24
2019-02-08T11:30:26.821Z,73.57
2019-02-08T11:31:26.839Z,73.57
2019-02-08T11:32:42.427Z,73.66
2019-02-08T11:33:26.877Z,73.38
2019-02-08T11:34:26.894Z,73.19
2019-02-08T11:35:26.912Z,73.28
2019-02-08T11:36:26.935Z,73.47
2019-02-08T11:37:26.690Z,73.41
2019-02-08T11:38:26.709Z,73.28
2019-02-08T11:39:26.733Z,73.22
2019-02-08T11:40:26.748Z,73.22
2019-02-08T11:41:26.763Z,73.22
2019-02-08T11:42:26.782Z,73.41
2019-02-08T11:43:26.801Z,73.22
2019-02-08T11:44:26.822Z,73.32
2019-02-08T11:45:26.838Z,73.41
2019-02-08T11:46:26.861Z,73.32
2019-02-08T11:47:26.877Z,73.32
2019-02-08T11:48:26.891Z,73.32
2019-02-08T11:49:26.912Z,73.32
2019-02-08T11:50:26.948Z,73.41
2019-02-08T11:51:26.950Z,73.32
2019-02-08T11:52:26.965Z,73.41
2019-02-08T11:53:26.985Z,73.41
2019-02-08T11:54:27.000Z,73.32
2019-02-08T11:55:27.019Z,73.32
2019-02-08T11:56:32.124Z,73.41
2019-02-08T11:57:27.061Z,73.32
2019-02-08T11:58:27.089Z,73.51
2019-02-08T11:59:27.093Z,73.13
2019-02-08T12:00:27.111Z,73.13
2019-02-08T12:01:27.136Z,73.13
2019-02-08T12:02:27.404Z,73.32
2019-02-08T12:03:27.427Z,73.32
2019-02-08T12:04:27.447Z,73.22
2019-02-08T12:05:27.203Z,72.94
2019-02-08T12:06:27.478Z,73.32
2019-02-08T12:07:27.242Z,72.65
2019-02-08T12:08:27.262Z,72.46
2019-02-08T12:09:27.279Z,72.65
2019-02-08T12:10:27.294Z,72.56
2019-02-08T12:11:27.314Z,72.46
2019-02-08T12:12:27.331Z,72.37
2019-02-08T12:13:27.653Z,72.37
2019-02-08T12:14:27.625Z,72.46
2019-02-08T12:15:27.646Z,72.65
2019-02-08T12:16:27.671Z,72.65
2019-02-08T12:17:27.422Z,72.56
2019-02-08T12:18:27.442Z,72.65
2019-02-08T12:19:27.767Z,72.65
2019-02-08T12:20:27.486Z,72.56
2019-02-08T12:21:27.502Z,72.65
2019-02-08T12:22:27.511Z,72.65
2019-02-08T12:23:27.532Z,72.94
2019-02-08T12:24:27.601Z,73.03
2019-02-08T12:25:27.569Z,72.85
2019-02-08T12:26:27.591Z,73.32
2019-02-08T12:27:27.864Z,73.41
2019-02-08T12:28:27.882Z,73.32
2019-02-08T12:29:27.909Z,73.22
2019-02-08T12:30:27.918Z,73.41
2019-02-08T12:31:27.937Z,73.32
2019-02-08T12:32:27.696Z,73.22
2019-02-08T12:33:28.019Z,73.41
2019-02-08T12:34:27.738Z,73.32
2019-02-08T12:35:28.010Z,73.22
2019-02-08T12:36:27.771Z,73.51
2019-02-08T12:37:27.790Z,73.8
2019-02-08T12:38:27.838Z,73.51
2019-02-08T12:39:28.146Z,74.14
2019-02-08T12:40:27.842Z,73.89
2019-02-08T12:41:28.117Z,73.76
2019-02-08T12:42:27.879Z,73.85
2019-02-08T12:43:28.157Z,73.95
2019-02-08T12:44:28.226Z,74.08
2019-02-08T12:45:28.202Z,74.14
2019-02-08T12:46:28.211Z,74.18
2019-02-08T12:47:27.971Z,73.8
2019-02-08T12:48:28.251Z,74.24
2019-02-08T12:49:28.265Z,74.14
2019-02-08T12:50:28.283Z,74.14
2019-02-08T12:51:28.300Z,74.04
2019-02-08T12:52:28.320Z,74.14
2019-02-08T12:53:28.338Z,73.95
2019-02-08T12:54:28.101Z,73.95
2019-02-08T12:55:28.374Z,73.95
2019-02-08T12:56:28.394Z,73.95
2019-02-08T12:57:28.153Z,73.85